Time;durP1;ratioP1;P1;durP2;ratioP2;P2;SDS_P1;SDS_P2;PMS_P1;PMS_P2;Temp;Humidity;BMP_temperature;BMP_pressure;BME280_temperature;BME280_humidity;BME280_pressure;Samples;Min_cycle;Max_cycle;Signal;HPM_P1;HPM_P2
2022/04/29 00:00:30;;;;;;;25.55;21.42;;;;;;;;;;4929911;29;20032;-77
2022/04/29 00:02:56;;;;;;;26.50;21.60;;;;;;;;;;4929508;29;20062;-77
2022/04/29 00:05:24;;;;;;;27.55;21.55;;;;;;;;;;4929964;29;20047;-78
2022/04/29 00:07:57;;;;;;;26.02;21.33;;;;;;;;;;4932947;29;20025;-78
2022/04/29 00:10:23;;;;;;;25.30;20.83;;;;;;;;;;4932977;29;20043;-77
2022/04/29 00:12:53;;;;;;;26.83;22.05;;;;;;;;;;4921272;29;20008;-78
2022/04/29 00:15:20;;;;;;;25.45;21.02;;;;;;;;;;4932170;29;20012;-78
2022/04/29 00:17:47;;;;;;;24.63;21.08;;;;;;;;;;4933940;29;20012;-78
2022/04/29 00:20:14;;;;;;;26.83;20.65;;;;;;;;;;4912913;29;20031;-78
2022/04/29 00:22:40;;;;;;;26.85;23.15;;;;;;;;;;4930928;29;20025;-78
2022/04/29 00:25:10;;;;;;;26.45;21.60;;;;;;;;;;4931754;29;20042;-78
2022/04/29 00:27:40;;;;;;;24.65;21.45;;;;;;;;;;4919633;29;20044;-77
2022/04/29 00:30:12;;;;;;;28.05;21.80;;;;;;;;;;4935417;29;20043;-78
2022/04/29 00:32:38;;;;;;;26.70;21.90;;;;;;;;;;4918286;29;20016;-77
2022/04/29 00:35:09;;;;;;;28.73;22.25;;;;;;;;;;4933813;29;20032;-78
2022/04/29 00:37:44;;;;;;;29.17;22.02;;;;;;;;;;4935022;29;20508;-78
2022/04/29 00:40:18;;;;;;;25.98;21.42;;;;;;;;;;4931819;29;20028;-78
2022/04/29 00:42:47;;;;;;;;;;;;;;;;;;4932359;29;20111;-78
2022/04/29 00:45:14;;;;;;;27.42;21.85;;;;;;;;;;4935931;29;19923;-78
2022/04/29 00:47:40;;;;;;;30.77;23.67;;;;;;;;;;4915769;29;20039;-78
2022/04/29 00:50:09;;;;;;;29.20;22.50;;;;;;;;;;4931759;29;20478;-78
2022/04/29 00:52:41;;;;;;;29.02;23.27;;;;;;;;;;4934179;29;20009;-78
2022/04/29 00:55:09;;;;;;;30.48;23.13;;;;;;;;;;4935638;29;20022;-78
2022/04/29 00:57:45;;;;;;;34.38;24.05;;;;;;;;;;4932836;29;20008;-78
2022/04/29 01:00:14;;;;;;;31.23;24.15;;;;;;;;;;4934939;29;20109;-78
2022/04/29 01:02:56;;;;;;;32.65;23.95;;;;;;;;;;4930199;29;20031;-77
2022/04/29 01:05:42;;;;;;;33.85;24.42;;;;;;;;;;4934132;29;20039;-78
2022/04/29 01:08:08;;;;;;;30.67;25.05;;;;;;;;;;4918246;29;20044;-77
2022/04/29 01:10:34;;;;;;;29.73;24.00;;;;;;;;;;4932049;29;20117;-78
2022/04/29 01:13:03;;;;;;;30.83;24.35;;;;;;;;;;4932489;29;20028;-78
2022/04/29 01:15:35;;;;;;;35.88;25.52;;;;;;;;;;4929649;29;20052;-78
2022/04/29 01:18:13;;;;;;;35.78;27.40;;;;;;;;;;4930178;29;20130;-78
2022/04/29 01:20:39;;;;;;;31.30;25.20;;;;;;;;;;4918438;29;20036;-78
2022/04/29 01:23:29;;;;;;;33.97;25.77;;;;;;;;;;4933567;29;20562;-78
2022/04/29 01:25:59;;;;;;;35.22;26.42;;;;;;;;;;4932398;29;20048;-78
2022/04/29 01:28:26;;;;;;;34.00;25.65;;;;;;;;;;4933239;29;20036;-78
2022/04/29 01:31:00;;;;;;;33.35;26.08;;;;;;;;;;4930382;29;20012;-78
2022/04/29 01:33:28;;;;;;;35.90;26.83;;;;;;;;;;4915645;29;20057;-78
2022/04/29 01:35:55;;;;;;;33.20;27.15;;;;;;;;;;4910191;29;20076;-78
2022/04/29 01:38:24;;;;;;;31.75;26.90;;;;;;;;;;4930785;29;20525;-78
2022/04/29 01:40:50;;;;;;;35.90;26.13;;;;;;;;;;4931014;29;20056;-78
2022/04/29 01:43:17;;;;;;;38.70;26.77;;;;;;;;;;4931664;29;20108;-77
2022/04/29 01:46:00;;;;;;;32.45;26.45;;;;;;;;;;4929895;29;20056;-78
2022/04/29 01:48:27;;;;;;;32.92;27.02;;;;;;;;;;4914279;29;20016;-78
2022/04/29 01:51:08;;;;;;;31.95;26.52;;;;;;;;;;4930779;29;20020;-78
2022/04/29 01:53:34;;;;;;;35.90;27.08;;;;;;;;;;4931788;29;20032;-78
2022/04/29 01:56:01;;;;;;;36.05;28.27;;;;;;;;;;4930307;29;20035;-78
2022/04/29 01:58:27;;;;;;;38.92;28.00;;;;;;;;;;4930513;29;20063;-77
2022/04/29 02:00:53;;;;;;;38.58;26.27;;;;;;;;;;4912577;29;20032;-77
2022/04/29 02:03:19;;;;;;;35.08;28.25;;;;;;;;;;4930037;29;20028;-78
2022/04/29 02:05:48;;;;;;;33.83;26.88;;;;;;;;;;4914434;29;20573;-78
2022/04/29 02:08:15;;;;;;;35.33;27.15;;;;;;;;;;4935434;29;20032;-77
2022/04/29 02:10:42;;;;;;;34.53;27.10;;;;;;;;;;4927839;29;20048;-78
2022/04/29 02:13:08;;;;;;;33.47;27.33;;;;;;;;;;4932310;29;20020;-78
2022/04/29 02:15:34;;;;;;;38.63;28.95;;;;;;;;;;4933241;29;20035;-78
2022/04/29 02:18:09;;;;;;;34.63;27.50;;;;;;;;;;4932989;29;20059;-78
2022/04/29 02:20:38;;;;;;;39.22;30.00;;;;;;;;;;4928677;29;20099;-78
2022/04/29 02:23:07;;;;;;;38.03;29.80;;;;;;;;;;4928723;29;20044;-78
2022/04/29 02:25:33;;;;;;;35.53;29.38;;;;;;;;;;4928524;29;20044;-77
2022/04/29 02:28:00;;;;;;;37.85;29.45;;;;;;;;;;4926698;29;20035;-78
2022/04/29 02:30:26;;;;;;;42.38;32.53;;;;;;;;;;4923944;29;20036;-78
2022/04/29 02:32:52;;;;;;;37.13;27.95;;;;;;;;;;4927164;29;20184;-78
2022/04/29 02:35:18;;;;;;;40.78;30.85;;;;;;;;;;4913548;29;20037;-79
2022/04/29 02:37:44;;;;;;;39.40;31.20;;;;;;;;;;4928199;29;20023;-78
2022/04/29 02:40:11;;;;;;;42.92;31.42;;;;;;;;;;4929727;29;20068;-79
2022/04/29 02:42:37;;;;;;;43.45;32.47;;;;;;;;;;4927586;29;20036;-78
2022/04/29 02:45:05;;;;;;;43.35;32.00;;;;;;;;;;4912150;29;20041;-78
2022/04/29 02:47:35;;;;;;;42.47;32.45;;;;;;;;;;4914371;29;20066;-79
2022/04/29 02:50:04;;;;;;;41.90;31.77;;;;;;;;;;4912412;29;20064;-79
2022/04/29 02:52:30;;;;;;;42.30;32.08;;;;;;;;;;4910024;29;20047;-78
2022/04/29 02:54:56;;;;;;;42.88;33.03;;;;;;;;;;4911671;29;20398;-78
2022/04/29 02:57:23;;;;;;;47.80;35.13;;;;;;;;;;4915982;29;20064;-79
2022/04/29 02:59:49;;;;;;;46.80;34.08;;;;;;;;;;4930169;29;20012;-79
2022/04/29 03:02:21;;;;;;;42.83;32.30;;;;;;;;;;4926239;29;20012;-78
2022/04/29 03:04:47;;;;;;;43.97;33.20;;;;;;;;;;4913645;29;20048;-79
2022/04/29 03:07:19;;;;;;;44.35;33.10;;;;;;;;;;4912551;29;20044;-79
2022/04/29 03:09:48;;;;;;;47.05;35.88;;;;;;;;;;4930327;29;20028;-79
2022/04/29 03:12:24;;;;;;;45.05;34.03;;;;;;;;;;4925278;29;20175;-78
2022/04/29 03:14:50;;;;;;;41.40;31.73;;;;;;;;;;4937856;23;20060;-78
2022/04/29 03:20:01;;;;;;;39.90;30.67;;;;;;;;;;4933727;29;20039;-78
2022/04/29 03:22:30;;;;;;;40.67;31.85;;;;;;;;;;4926129;29;20023;-78
2022/04/29 03:24:56;;;;;;;47.17;33.42;;;;;;;;;;4910399;29;20044;-79
2022/04/29 03:27:23;;;;;;;43.67;31.70;;;;;;;;;;4914856;29;20020;-78
2022/04/29 03:29:49;;;;;;;42.22;31.15;;;;;;;;;;4914451;29;20037;-79
2022/04/29 03:32:18;;;;;;;34.75;28.20;;;;;;;;;;4909266;29;20032;-79
2022/04/29 03:34:45;;;;;;;39.20;30.05;;;;;;;;;;4916428;29;20027;-78
2022/04/29 03:37:13;;;;;;;38.95;30.88;;;;;;;;;;4933190;29;20060;-78
2022/04/29 03:39:40;;;;;;;39.28;29.73;;;;;;;;;;4948980;29;20011;-79
2022/04/29 03:42:10;;;;;;;40.03;30.70;;;;;;;;;;4933503;29;20036;-79
2022/04/29 03:44:38;;;;;;;38.50;31.00;;;;;;;;;;4941316;29;20064;-78
2022/04/29 03:47:05;;;;;;;35.15;27.70;;;;;;;;;;4915873;29;20040;-79
2022/04/29 03:49:36;;;;;;;36.15;28.13;;;;;;;;;;4913642;29;20084;-79
2022/04/29 03:52:06;;;;;;;35.00;27.38;;;;;;;;;;4928523;29;20064;-79
2022/04/29 03:54:33;;;;;;;32.20;26.15;;;;;;;;;;4931472;29;21335;-78
2022/04/29 03:56:59;;;;;;;34.22;26.83;;;;;;;;;;4927962;29;20064;-79
2022/04/29 03:59:25;;;;;;;35.00;28.45;;;;;;;;;;4935215;29;20039;-78
2022/04/29 04:01:54;;;;;;;39.47;28.92;;;;;;;;;;4934389;29;20042;-79
2022/04/29 04:04:23;;;;;;;35.60;27.00;;;;;;;;;;4936073;29;20055;-79
2022/04/29 04:06:52;;;;;;;36.95;28.95;;;;;;;;;;4921383;29;20008;-79
2022/04/29 04:09:22;;;;;;;39.28;29.83;;;;;;;;;;4953607;29;20569;-78
2022/04/29 04:11:52;;;;;;;39.40;29.08;;;;;;;;;;4937831;29;20040;-78
2022/04/29 04:14:29;;;;;;;38.45;28.70;;;;;;;;;;4915699;28;20012;-79
2022/04/29 04:16:58;;;;;;;39.88;28.80;;;;;;;;;;4939999;29;20499;-79
2022/04/29 04:19:35;;;;;;;36.72;28.67;;;;;;;;;;4954413;29;20047;-79
2022/04/29 04:22:10;;;;;;;37.50;28.85;;;;;;;;;;4951149;29;20047;-78
2022/04/29 04:24:40;;;;;;;33.75;27.25;;;;;;;;;;4951458;29;20054;-78
2022/04/29 04:27:06;;;;;;;37.25;26.58;;;;;;;;;;4941063;29;20036;-78
2022/04/29 04:29:33;;;;;;;33.08;26.13;;;;;;;;;;4936041;29;20015;-78
2022/04/29 04:32:21;;;;;;;40.80;29.90;;;;;;;;;;4927254;29;20033;-78
2022/04/29 04:34:50;;;;;;;39.65;28.30;;;;;;;;;;4904905;29;20588;-79
2022/04/29 04:37:36;;;;;;;38.17;27.13;;;;;;;;;;4933268;29;20032;-79
2022/04/29 04:40:09;;;;;;;45.88;26.38;;;;;;;;;;4938206;29;20039;-79
2022/04/29 04:42:46;;;;;;;42.83;28.63;;;;;;;;;;4919389;29;20470;-78
2022/04/29 04:45:14;;;;;;;50.65;26.65;;;;;;;;;;4932441;29;20048;-79
2022/04/29 04:47:42;;;;;;;41.50;23.83;;;;;;;;;;4934241;29;20067;-79
2022/04/29 04:50:15;;;;;;;41.00;25.15;;;;;;;;;;4933648;29;20024;-78
2022/04/29 04:53:01;;;;;;;34.42;22.90;;;;;;;;;;4938189;29;20039;-78
2022/04/29 04:55:27;;;;;;;30.48;22.65;;;;;;;;;;4958724;29;20165;-79
2022/04/29 04:58:13;;;;;;;31.52;21.35;;;;;;;;;;4936157;29;20027;-78
2022/04/29 05:00:43;;;;;;;30.17;21.27;;;;;;;;;;4956006;29;20036;-78
2022/04/29 05:03:16;;;;;;;30.70;22.70;;;;;;;;;;4939133;29;20028;-79
2022/04/29 05:06:08;;;;;;;27.25;20.90;;;;;;;;;;4940888;29;20051;-79
2022/04/29 05:09:17;;;;;;;25.48;21.23;;;;;;;;;;4957482;29;20063;-79
2022/04/29 05:12:14;;;;;;;23.83;20.70;;;;;;;;;;4854927;29;20120;-78
2022/04/29 05:15:31;;;;;;;26.48;19.77;;;;;;;;;;4848222;29;20094;-80
2022/04/29 05:18:37;;;;;;;21.88;18.70;;;;;;;;;;4792332;29;20047;-79
2022/04/29 05:21:51;;;;;;;27.08;20.70;;;;;;;;;;4794967;29;20120;-79
2022/04/29 05:27:08;;;;;;;27.50;20.35;;;;;;;;;;4705000;30;20045;-75
2022/04/29 05:29:35;;;;;;;24.00;19.15;;;;;;;;;;5082055;23;21963;-77
2022/04/29 05:32:40;;;;;;;23.95;19.13;;;;;;;;;;4922226;28;20395;-75
2022/04/29 05:35:14;;;;;;;23.63;20.10;;;;;;;;;;4935523;29;20139;-74
2022/04/29 05:37:43;;;;;;;28.02;20.65;;;;;;;;;;4937390;29;20023;-75
2022/04/29 05:42:56;;;;;;;23.88;20.70;;;;;;;;;;4917106;29;20047;-76
2022/04/29 05:45:23;;;;;;;27.60;21.15;;;;;;;;;;4926863;29;20052;-72
2022/04/29 05:47:49;;;;;;;30.95;21.92;;;;;;;;;;4920723;29;20024;-76
2022/04/29 05:50:30;;;;;;;22.13;19.52;;;;;;;;;;4931576;29;20020;-80
2022/04/29 06:05:11;;;;;;;26.05;19.95;;;;;;;;;;5203742;23;20058;-79
2022/04/29 06:07:37;;;;;;;25.50;21.83;;;;;;;;;;4936535;29;20035;-76
2022/04/29 06:10:05;;;;;;;31.42;27.25;;;;;;;;;;4949252;29;20024;-76
2022/04/29 06:12:45;;;;;;;31.00;23.73;;;;;;;;;;4957963;28;20027;-79
2022/04/29 06:15:29;;;;;;;36.42;27.50;;;;;;;;;;4944515;29;20055;-79
2022/04/29 06:18:13;;;;;;;29.88;24.15;;;;;;;;;;4940853;29;20035;-79
2022/04/29 06:20:42;;;;;;;29.27;22.77;;;;;;;;;;4929865;29;20032;-78
2022/04/29 06:32:06;;;;;;;22.02;19.70;;;;;;;;;;4862979;29;20526;-87
2022/04/29 06:34:33;;;;;;;24.67;19.58;;;;;;;;;;4862680;29;20176;-86
2022/04/29 06:36:59;;;;;;;28.02;20.70;;;;;;;;;;4861701;29;20021;-89
2022/04/29 06:39:25;;;;;;;29.52;21.45;;;;;;;;;;4871549;29;20045;-89
2022/04/29 06:41:51;;;;;;;27.00;20.27;;;;;;;;;;4859620;29;20033;-90
2022/04/29 06:44:17;;;;;;;24.70;20.05;;;;;;;;;;4875319;29;20132;-88
2022/04/29 06:46:44;;;;;;;26.92;19.80;;;;;;;;;;4858733;29;20049;-87
2022/04/29 06:49:10;;;;;;;23.75;19.85;;;;;;;;;;4876523;29;20182;-90
2022/04/29 06:51:36;;;;;;;24.30;19.83;;;;;;;;;;4880883;29;20041;-88
2022/04/29 06:54:03;;;;;;;22.58;20.20;;;;;;;;;;4858584;29;20033;-89
2022/04/29 06:56:29;;;;;;;22.40;18.60;;;;;;;;;;4860373;29;20021;-78
2022/04/29 06:58:55;;;;;;;20.70;18.42;;;;;;;;;;4870908;29;20116;-85
2022/04/29 07:01:21;;;;;;;24.55;19.13;;;;;;;;;;4872842;29;20037;-86
2022/04/29 07:03:47;;;;;;;22.75;17.98;;;;;;;;;;4861809;29;20029;-88
2022/04/29 07:06:13;;;;;;;20.65;17.70;;;;;;;;;;4914156;29;20055;-89
2022/04/29 07:08:39;;;;;;;21.92;18.25;;;;;;;;;;4918025;29;20492;-87
2022/04/29 07:11:06;;;;;;;32.33;23.77;;;;;;;;;;4933488;29;20034;-81
2022/04/29 07:13:32;;;;;;;20.27;18.08;;;;;;;;;;4934824;29;20470;-82
2022/04/29 07:15:58;;;;;;;21.27;17.75;;;;;;;;;;4930133;29;20039;-85
2022/04/29 07:18:24;;;;;;;20.73;16.92;;;;;;;;;;4913531;29;20052;-83
2022/04/29 07:20:51;;;;;;;18.38;16.35;;;;;;;;;;4930496;29;20051;-85
2022/04/29 07:23:17;;;;;;;25.58;16.58;;;;;;;;;;4917504;29;20035;-82
2022/04/29 07:25:43;;;;;;;20.90;15.35;;;;;;;;;;4932219;29;20079;-80
2022/04/29 07:28:09;;;;;;;21.35;17.02;;;;;;;;;;4932599;29;20114;-82
2022/04/29 07:30:35;;;;;;;20.63;17.23;;;;;;;;;;4930823;29;20361;-79
2022/04/29 07:33:02;;;;;;;19.60;15.65;;;;;;;;;;4930122;29;20030;-79
2022/04/29 07:43:43;;;;;;;19.13;14.77;;;;;;;;;;4933750;29;20038;-76
2022/04/29 07:46:12;;;;;;;20.58;14.57;;;;;;;;;;4927593;29;20074;-78
2022/04/29 07:48:39;;;;;;;18.40;14.23;;;;;;;;;;4932637;29;20016;-84
2022/04/29 07:51:06;;;;;;;20.85;14.25;;;;;;;;;;4926811;29;20035;-72
2022/04/29 07:53:32;;;;;;;19.45;14.68;;;;;;;;;;4932452;29;20506;-79
2022/04/29 07:55:58;;;;;;;21.08;14.90;;;;;;;;;;4934049;29;20027;-75
2022/04/29 07:58:24;;;;;;;18.13;14.35;;;;;;;;;;4934144;29;20031;-75
2022/04/29 08:00:51;;;;;;;25.60;16.08;;;;;;;;;;4933628;29;20048;-74
2022/04/29 08:03:17;;;;;;;24.73;15.15;;;;;;;;;;4934723;29;20020;-75
2022/04/29 08:05:43;;;;;;;20.70;14.07;;;;;;;;;;4934239;29;20035;-74
2022/04/29 08:08:09;;;;;;;18.77;13.75;;;;;;;;;;4934545;29;20536;-75
2022/04/29 08:10:38;;;;;;;16.20;14.00;;;;;;;;;;4934100;29;20028;-74
2022/04/29 08:13:04;;;;;;;17.70;14.20;;;;;;;;;;4934474;29;20513;-75
2022/04/29 08:15:32;;;;;;;21.45;14.15;;;;;;;;;;4934072;29;20023;-75
2022/04/29 08:17:59;;;;;;;17.98;13.82;;;;;;;;;;4917137;29;20263;-75
2022/04/29 08:20:27;;;;;;;17.80;13.07;;;;;;;;;;4934008;29;20035;-74
2022/04/29 08:22:53;;;;;;;14.70;12.50;;;;;;;;;;4934279;29;20158;-74
2022/04/29 08:25:20;;;;;;;20.98;13.57;;;;;;;;;;4916910;29;20039;-75
2022/04/29 08:27:47;;;;;;;16.15;12.65;;;;;;;;;;4936934;29;20051;-75
2022/04/29 08:30:16;;;;;;;20.33;12.52;;;;;;;;;;4937948;29;20020;-74
2022/04/29 08:32:46;;;;;;;14.52;12.30;;;;;;;;;;4936952;29;20024;-75
2022/04/29 08:35:13;;;;;;;18.92;12.45;;;;;;;;;;4937451;29;20024;-77
2022/04/29 08:37:40;;;;;;;32.75;13.45;;;;;;;;;;4937495;29;20091;-74
2022/04/29 08:40:06;;;;;;;19.42;12.10;;;;;;;;;;4937462;29;20067;-74
2022/04/29 08:42:41;;;;;;;18.48;12.05;;;;;;;;;;4937196;29;20016;-75
2022/04/29 08:45:08;;;;;;;15.00;11.98;;;;;;;;;;4937571;29;20035;-74
2022/04/29 08:47:38;;;;;;;15.00;11.55;;;;;;;;;;4937716;29;20028;-74
2022/04/29 08:50:07;;;;;;;16.40;11.60;;;;;;;;;;4937869;29;20375;-74
2022/04/29 08:52:35;;;;;;;12.45;10.80;;;;;;;;;;4937980;29;20047;-74
2022/04/29 09:00:31;;;;;;;14.13;8.57;;;;;;;;;;4938415;29;20059;-74
2022/04/29 09:03:00;;;;;;;11.77;8.95;;;;;;;;;;4938217;29;20478;-75
2022/04/29 09:05:27;;;;;;;12.32;9.98;;;;;;;;;;4937827;29;20044;-74
2022/04/29 09:07:53;;;;;;;16.17;9.88;;;;;;;;;;4930972;29;20032;-77
2022/04/29 09:10:19;;;;;;;16.77;10.20;;;;;;;;;;4933651;29;20036;-74
2022/04/29 09:12:45;;;;;;;12.45;8.77;;;;;;;;;;4938391;29;20047;-77
2022/04/29 09:15:15;;;;;;;12.93;8.80;;;;;;;;;;4937639;29;20032;-75
2022/04/29 09:17:48;;;;;;;18.35;9.00;;;;;;;;;;4939138;29;20028;-72
2022/04/29 09:20:19;;;;;;;11.82;9.18;;;;;;;;;;4939650;29;20019;-72
2022/04/29 09:22:50;;;;;;;11.02;9.35;;;;;;;;;;4931782;29;20393;-73
2022/04/29 09:25:17;;;;;;;16.27;9.85;;;;;;;;;;4947431;28;20032;-72
2022/04/29 09:27:53;;;;;;;10.82;8.60;;;;;;;;;;4943579;29;20063;-73
2022/04/29 09:30:31;;;;;;;11.45;8.82;;;;;;;;;;4942289;29;20034;-72
2022/04/29 09:32:58;;;;;;;14.32;8.55;;;;;;;;;;4943282;29;20031;-72
2022/04/29 09:35:40;;;;;;;11.73;8.43;;;;;;;;;;4943490;29;20024;-72
2022/04/29 09:54:26;;;;;;;14.57;8.48;;;;;;;;;;5324042;23;20060;-76
2022/04/29 10:00:00;;;;;;;9.15;8.13;;;;;;;;;;4910681;29;20046;-77
2022/04/29 10:05:52;;;;;;;12.25;8.45;;;;;;;;;;5169259;23;20039;-76
2022/04/29 10:23:19;;;;;;;9.00;6.47;;;;;;;;;;5973273;23;20030;-77
2022/04/29 10:25:54;;;;;;;8.98;6.20;;;;;;;;;;4910993;29;20052;-78
2022/04/29 10:28:23;;;;;;;6.30;5.00;;;;;;;;;;4911252;29;20033;-77
2022/04/29 10:31:18;;;;;;;8.13;6.13;;;;;;;;;;4909879;29;20036;-77
2022/04/29 10:33:53;;;;;;;8.63;7.30;;;;;;;;;;4905679;29;20052;-73
2022/04/29 10:36:24;;;;;;;10.75;6.75;;;;;;;;;;4905619;29;20498;-71
2022/04/29 10:38:59;;;;;;;9.27;6.50;;;;;;;;;;4904618;29;20017;-71
2022/04/29 10:41:25;;;;;;;14.35;7.50;;;;;;;;;;4895772;29;20025;-72
2022/04/29 10:43:52;;;;;;;8.98;6.93;;;;;;;;;;4901456;29;20032;-72
2022/04/29 10:46:20;;;;;;;9.63;7.63;;;;;;;;;;4904305;29;20048;-71
2022/04/29 10:48:46;;;;;;;10.25;6.47;;;;;;;;;;4903299;29;20383;-72
2022/04/29 10:51:41;;;;;;;12.25;7.03;;;;;;;;;;4902986;29;20035;-71
2022/04/29 10:54:07;;;;;;;10.88;7.80;;;;;;;;;;4903662;29;20045;-72
2022/04/29 10:56:35;;;;;;;8.80;6.68;;;;;;;;;;4896183;29;20029;-71
2022/04/29 10:59:08;;;;;;;8.77;7.47;;;;;;;;;;4886009;29;20017;-71
2022/04/29 11:01:36;;;;;;;12.25;8.13;;;;;;;;;;4895851;29;20514;-72
2022/04/29 11:04:04;;;;;;;13.63;7.53;;;;;;;;;;4895467;29;20029;-71
2022/04/29 11:06:37;;;;;;;9.60;7.50;;;;;;;;;;4893561;29;20037;-72
2022/04/29 11:09:03;;;;;;;9.93;6.97;;;;;;;;;;4911962;29;20033;-71
2022/04/29 11:11:45;;;;;;;9.05;7.18;;;;;;;;;;4893370;29;20033;-72
2022/04/29 11:14:12;;;;;;;9.30;7.30;;;;;;;;;;4893727;29;20080;-72
2022/04/29 11:16:48;;;;;;;13.73;7.55;;;;;;;;;;4897031;29;20383;-71
2022/04/29 11:19:21;;;;;;;9.07;7.40;;;;;;;;;;4876222;29;20025;-72
2022/04/29 11:24:46;;;;;;;12.48;7.03;;;;;;;;;;4901248;29;20078;-72
2022/04/29 11:27:14;;;;;;;7.78;6.60;;;;;;;;;;4903422;29;20031;-72
2022/04/29 11:29:47;;;;;;;11.38;6.22;;;;;;;;;;4900116;29;20067;-72
2022/04/29 11:37:51;;;;;;;7.70;6.22;;;;;;;;;;5892510;23;20926;-78
2022/04/29 11:40:20;;;;;;;9.55;7.10;;;;;;;;;;4918966;29;20301;-75
2022/04/29 11:42:55;;;;;;;9.82;6.72;;;;;;;;;;4941161;29;20100;-75
2022/04/29 11:45:22;;;;;;;9.85;7.25;;;;;;;;;;4925463;29;20431;-77
2022/04/29 11:47:49;;;;;;;8.25;7.20;;;;;;;;;;4933817;29;20031;-76
2022/04/29 11:50:41;;;;;;;9.80;7.50;;;;;;;;;;4943377;29;20036;-77
2022/04/29 11:53:09;;;;;;;7.97;6.10;;;;;;;;;;4923361;29;20039;-76
2022/04/29 11:55:42;;;;;;;11.43;5.68;;;;;;;;;;4930591;29;20032;-76
2022/04/29 11:58:08;;;;;;;7.85;4.90;;;;;;;;;;4926861;29;20086;-76
2022/04/29 12:00:38;;;;;;;8.00;5.45;;;;;;;;;;4920338;29;20034;-77
2022/04/29 12:03:29;;;;;;;6.20;4.70;;;;;;;;;;4886668;29;20068;-78
2022/04/29 12:06:04;;;;;;;7.50;4.80;;;;;;;;;;4933780;29;20101;-78
2022/04/29 12:09:00;;;;;;;7.38;4.20;;;;;;;;;;4923763;29;20040;-78
2022/04/29 12:11:30;;;;;;;7.82;4.57;;;;;;;;;;4899465;29;20028;-79
2022/04/29 12:14:29;;;;;;;5.55;3.90;;;;;;;;;;4940031;29;20036;-79
2022/04/29 12:17:19;;;;;;;5.55;3.38;;;;;;;;;;4923750;29;20023;-79
2022/04/29 12:20:31;;;;;;;7.63;3.72;;;;;;;;;;4886285;29;20398;-75
2022/04/29 12:23:08;;;;;;;5.15;3.22;;;;;;;;;;4870342;29;20053;-76
2022/04/29 12:38:34;;;;;;;3.75;3.10;;;;;;;;;;5320586;23;20048;-76
2022/04/29 12:49:22;;;;;;;6.28;3.60;;;;;;;;;;5083346;23;20775;-78
2022/04/29 13:02:11;;;;;;;6.38;3.03;;;;;;;;;;5472270;23;20051;-76
2022/04/29 13:04:39;;;;;;;5.43;3.30;;;;;;;;;;4909838;29;20438;-78
2022/04/29 13:07:05;;;;;;;5.68;3.38;;;;;;;;;;4906880;29;20044;-77
2022/04/29 13:12:36;;;;;;;4.75;2.67;;;;;;;;;;4935030;29;20040;-78
2022/04/29 13:15:33;;;;;;;4.30;3.28;;;;;;;;;;4929805;29;20041;-78
2022/04/29 13:20:53;;;;;;;7.38;3.15;;;;;;;;;;5097563;23;20063;-77
2022/04/29 13:23:19;;;;;;;7.15;3.25;;;;;;;;;;4911428;29;20043;-78
2022/04/29 13:25:45;;;;;;;3.85;2.80;;;;;;;;;;4924506;29;20052;-76
2022/04/29 13:28:12;;;;;;;4.18;3.15;;;;;;;;;;4923592;29;20075;-79
2022/04/29 13:30:41;;;;;;;6.30;3.22;;;;;;;;;;4926055;29;20028;-76
2022/04/29 13:33:08;;;;;;;5.97;3.38;;;;;;;;;;4930785;29;20056;-78
2022/04/29 13:35:47;;;;;;;6.28;3.33;;;;;;;;;;4934912;29;20032;-79
2022/04/29 13:38:48;;;;;;;5.28;3.13;;;;;;;;;;4919790;29;20045;-79
2022/04/29 13:41:24;;;;;;;3.70;2.80;;;;;;;;;;4906720;29;20040;-78
2022/04/29 13:43:52;;;;;;;5.13;2.30;;;;;;;;;;4918847;29;20051;-78
2022/04/29 13:46:36;;;;;;;3.38;2.60;;;;;;;;;;4909680;29;20024;-79
2022/04/29 14:02:58;;;;;;;7.13;3.03;;;;;;;;;;6026099;23;20067;31
2022/04/29 14:05:27;;;;;;;5.80;2.90;;;;;;;;;;4849277;29;20317;-76
2022/04/29 14:07:53;;;;;;;5.60;2.92;;;;;;;;;;4852352;29;20504;-76
2022/04/29 14:10:19;;;;;;;2.90;2.60;;;;;;;;;;4847172;29;20034;-76
2022/04/29 14:12:45;;;;;;;9.80;3.50;;;;;;;;;;4845526;29;20540;-75
2022/04/29 14:15:11;;;;;;;6.72;2.60;;;;;;;;;;4835414;29;20068;-76
2022/04/29 14:17:38;;;;;;;4.93;2.63;;;;;;;;;;4830788;29;20549;-76
2022/04/29 14:20:04;;;;;;;3.47;2.47;;;;;;;;;;4820306;29;20069;-77
2022/04/29 14:22:32;;;;;;;5.65;2.50;;;;;;;;;;4830615;29;20481;-77
2022/04/29 14:25:23;;;;;;;9.40;3.17;;;;;;;;;;4828666;29;20006;-79
2022/04/29 14:28:13;;;;;;;4.85;2.65;;;;;;;;;;4866795;29;20030;-79
2022/04/29 14:31:09;;;;;;;5.65;2.80;;;;;;;;;;4851607;29;20014;-79
2022/04/29 14:34:15;;;;;;;4.30;2.70;;;;;;;;;;4866491;29;20540;-80
2022/04/29 14:37:14;;;;;;;3.40;2.45;;;;;;;;;;4840603;29;20044;-80
2022/04/29 14:39:57;;;;;;;3.75;2.47;;;;;;;;;;4827108;29;20030;-79
2022/04/29 14:42:36;;;;;;;5.68;3.00;;;;;;;;;;4840676;29;20091;-79
2022/04/29 14:45:11;;;;;;;4.80;2.90;;;;;;;;;;4842426;29;20081;-76
2022/04/29 14:50:44;;;;;;;6.57;3.25;;;;;;;;;;4892535;29;20084;-76
2022/04/29 14:53:16;;;;;;;5.75;3.38;;;;;;;;;;4898128;29;20052;-76
2022/04/29 14:55:43;;;;;;;4.05;2.80;;;;;;;;;;4884070;29;20041;-76
2022/04/29 14:58:10;;;;;;;8.80;2.83;;;;;;;;;;4888352;29;20033;-76
2022/04/29 15:00:36;;;;;;;3.20;2.33;;;;;;;;;;4903180;29;20079;-76
2022/04/29 15:03:06;;;;;;;4.57;2.55;;;;;;;;;;4912701;29;20032;-77
2022/04/29 15:05:32;;;;;;;5.57;2.95;;;;;;;;;;4904115;29;20119;-77
2022/04/29 15:08:07;;;;;;;4.72;2.70;;;;;;;;;;4901120;29;20033;-77
2022/04/29 15:16:33;;;;;;;7.72;3.15;;;;;;;;;;4927431;29;20052;-79
2022/04/29 15:19:43;;;;;;;4.72;3.03;;;;;;;;;;4904556;29;20040;-78
2022/04/29 15:25:50;;;;;;;5.85;2.80;;;;;;;;;;5212867;23;20065;-78
2022/04/29 15:28:16;;;;;;;6.00;3.05;;;;;;;;;;4897772;29;20061;-78
2022/04/29 15:30:49;;;;;;;5.95;2.95;;;;;;;;;;4890813;29;20036;-74
2022/04/29 15:33:16;;;;;;;3.30;2.83;;;;;;;;;;4894345;29;20048;-77
2022/04/29 15:35:48;;;;;;;6.07;3.50;;;;;;;;;;4882512;29;20427;-76
2022/04/29 15:38:15;;;;;;;4.87;3.07;;;;;;;;;;4902483;29;20029;-77
2022/04/29 15:40:42;;;;;;;4.95;3.10;;;;;;;;;;4882220;29;20032;-77
2022/04/29 15:43:18;;;;;;;8.90;3.20;;;;;;;;;;4902190;29;20037;-76
2022/04/29 15:45:48;;;;;;;7.25;3.00;;;;;;;;;;4896986;29;20134;-78
2022/04/29 15:48:18;;;;;;;8.95;3.10;;;;;;;;;;4911596;29;20398;-77
2022/04/29 15:50:46;;;;;;;3.33;2.58;;;;;;;;;;4899279;29;20009;-74
2022/04/29 15:53:34;;;;;;;5.22;2.88;;;;;;;;;;5218653;23;20945;-77
2022/04/29 15:56:03;;;;;;;9.45;3.03;;;;;;;;;;4911035;23;21025;-76
2022/04/29 15:58:33;;;;;;;4.55;2.72;;;;;;;;;;4933535;29;20036;-76
2022/04/29 16:01:00;;;;;;;7.38;3.20;;;;;;;;;;4935565;29;20406;-76
2022/04/29 16:03:26;;;;;;;4.10;2.72;;;;;;;;;;4937213;29;20004;-76
2022/04/29 16:05:52;;;;;;;5.40;2.92;;;;;;;;;;4935511;29;20036;-76
2022/04/29 16:08:21;;;;;;;7.03;3.22;;;;;;;;;;4937975;29;20039;-76
2022/04/29 16:10:51;;;;;;;6.25;3.00;;;;;;;;;;4939733;29;20003;-76
2022/04/29 16:13:19;;;;;;;5.22;3.15;;;;;;;;;;4935810;29;20035;-76
2022/04/29 16:15:45;;;;;;;7.43;2.90;;;;;;;;;;4928776;29;20031;-76
2022/04/29 16:20:57;;;;;;;6.63;3.05;;;;;;;;;;4928415;29;20552;-75
2022/04/29 16:26:07;;;;;;;7.00;3.33;;;;;;;;;;4925253;29;20076;-75
2022/04/29 16:28:37;;;;;;;6.22;3.47;;;;;;;;;;4929476;29;20118;-75
2022/04/29 16:31:09;;;;;;;5.47;3.47;;;;;;;;;;4934618;29;20012;-77
2022/04/29 16:33:35;;;;;;;7.82;3.70;;;;;;;;;;4930648;29;20032;-75
2022/04/29 16:36:01;;;;;;;6.07;3.88;;;;;;;;;;4917074;29;20031;-74
2022/04/29 16:38:27;;;;;;;6.78;3.50;;;;;;;;;;4917978;29;20506;-75
2022/04/29 16:40:53;;;;;;;7.35;3.70;;;;;;;;;;4921205;29;20506;-74
2022/04/29 16:43:19;;;;;;;16.10;4.30;;;;;;;;;;4918398;29;20033;-73
2022/04/29 16:45:46;;;;;;;8.40;4.28;;;;;;;;;;4919360;29;20028;-73
2022/04/29 16:48:13;;;;;;;8.52;4.05;;;;;;;;;;4920873;29;20032;-73
2022/04/29 16:50:40;;;;;;;7.13;3.80;;;;;;;;;;4921862;29;20035;-73
2022/04/29 16:53:06;;;;;;;7.80;3.90;;;;;;;;;;4924538;29;20043;-73
2022/04/29 16:55:33;;;;;;;8.57;3.67;;;;;;;;;;4927306;29;20060;-74
2022/04/29 17:00:44;;;;;;;8.60;3.83;;;;;;;;;;4944739;29;20039;-73
2022/04/29 17:03:13;;;;;;;11.13;4.32;;;;;;;;;;4939504;29;20445;-73
2022/04/29 17:05:43;;;;;;;11.80;4.65;;;;;;;;;;4940543;29;20059;-73
2022/04/29 17:08:13;;;;;;;6.97;4.10;;;;;;;;;;4939375;29;20106;-73
2022/04/29 17:10:40;;;;;;;7.00;3.70;;;;;;;;;;4938851;29;20074;-73
2022/04/29 17:13:07;;;;;;;7.85;4.45;;;;;;;;;;4939077;29;20028;-73
2022/04/29 17:15:33;;;;;;;6.88;4.10;;;;;;;;;;4939596;29;20051;-73
2022/04/29 17:18:00;;;;;;;7.88;4.10;;;;;;;;;;4938924;29;20023;-73
2022/04/29 17:20:27;;;;;;;12.10;4.07;;;;;;;;;;4944249;29;20379;-73
2022/04/29 17:22:53;;;;;;;7.20;4.47;;;;;;;;;;4939851;29;20028;-74
2022/04/29 17:25:25;;;;;;;5.85;4.43;;;;;;;;;;4948594;29;20016;-78
2022/04/29 17:27:54;;;;;;;9.55;4.32;;;;;;;;;;4952382;29;20027;-76
2022/04/29 17:30:21;;;;;;;11.05;4.60;;;;;;;;;;4953716;29;20183;-77
2022/04/29 17:32:49;;;;;;;11.15;4.43;;;;;;;;;;4934597;29;20477;-77